createdAt,value
2018-07-26T00:01:03.670Z,10.10
2018-07-26T00:03:33.579Z,9.57
2018-07-26T00:06:05.779Z,11.07
2018-07-26T00:08:36.295Z,10.60
2018-07-26T00:11:06.082Z,12.90
2018-07-26T00:13:35.705Z,10.73
2018-07-26T00:16:07.894Z,12.85
2018-07-26T00:18:37.988Z,10.93
2018-07-26T00:21:07.701Z,13.27
2018-07-26T00:23:37.174Z,13.20
2018-07-26T00:26:11.016Z,11.07
2018-07-26T00:28:40.118Z,11.53
2018-07-26T00:31:11.352Z,13.45
2018-07-26T00:33:41.726Z,10.47
2018-07-26T00:36:15.686Z,12.17
2018-07-26T00:38:47.183Z,12.90
2018-07-26T00:41:17.825Z,9.77
2018-07-26T00:43:48.722Z,9.40
2018-07-26T00:48:42.667Z,13.33
2018-07-26T00:51:14.979Z,15.32
2018-07-26T00:53:46.081Z,11.22
2018-07-26T00:56:19.153Z,10.57
2018-07-26T00:58:49.081Z,10.30
2018-07-26T01:01:20.961Z,12.73
2018-07-26T01:03:52.813Z,10.30
2018-07-26T01:06:24.747Z,14.03
2018-07-26T01:08:56.863Z,10.82
2018-07-26T01:11:29.564Z,11.18
2018-07-26T01:14:01.823Z,10.63
2018-07-26T01:16:32.715Z,10.93
2018-07-26T01:19:08.588Z,10.55
2018-07-26T01:21:39.968Z,12.60
2018-07-26T01:24:13.683Z,14.33
2018-07-26T01:26:44.159Z,14.67
2018-07-26T01:29:15.343Z,11.37
2018-07-26T01:31:51.681Z,10.40
2018-07-26T01:34:22.159Z,11.47
2018-07-26T01:36:56.496Z,11.13
2018-07-26T01:39:26.968Z,11.23
2018-07-26T01:41:58.353Z,11.07
2018-07-26T01:44:28.793Z,10.17
2018-07-26T01:46:58.920Z,11.13
2018-07-26T01:49:29.926Z,10.27
2018-07-26T01:52:07.547Z,10.27
2018-07-26T01:54:42.793Z,9.90
2018-07-26T01:57:15.151Z,11.20
2018-07-26T01:59:47.810Z,11.15
2018-07-26T02:02:19.750Z,11.53
2018-07-26T02:05:12.290Z,10.05
2018-07-26T02:07:42.476Z,10.60
2018-07-26T02:10:14.253Z,11.08
2018-07-26T02:12:47.564Z,10.43
2018-07-26T02:15:18.036Z,10.97
2018-07-26T02:17:48.327Z,12.53
2018-07-26T02:20:18.659Z,16.80
2018-07-26T02:22:48.966Z,12.05
2018-07-26T02:25:19.141Z,12.77
2018-07-26T02:27:50.950Z,12.97
2018-07-26T02:30:22.450Z,12.10
2018-07-26T02:32:54.473Z,15.12
2018-07-26T02:35:24.568Z,11.83
2018-07-26T02:37:56.319Z,12.47
2018-07-26T02:40:26.223Z,13.27
2018-07-26T02:42:56.512Z,13.23
2018-07-26T02:45:26.916Z,12.63
2018-07-26T02:47:56.434Z,13.03
2018-07-26T02:50:26.399Z,11.00
2018-07-26T02:52:57.620Z,12.15
2018-07-26T02:55:27.288Z,11.33
2018-07-26T02:57:56.525Z,12.17
2018-07-26T03:00:26.681Z,12.07
2018-07-26T03:02:58.686Z,14.30
2018-07-26T03:05:28.314Z,13.57
2018-07-26T03:07:58.443Z,11.13
2018-07-26T03:10:28.668Z,13.83
2018-07-26T03:15:35.015Z,14.43
2018-07-26T03:18:04.704Z,18.43
2018-07-26T03:20:35.275Z,13.47
2018-07-26T03:23:16.035Z,15.43
2018-07-26T03:25:51.773Z,23.00
2018-07-26T03:28:24.183Z,23.05
2018-07-26T03:30:54.335Z,21.03
2018-07-26T03:33:24.330Z,19.70
2018-07-26T03:35:54.155Z,18.97
2018-07-26T03:38:25.504Z,26.00
2018-07-26T03:40:55.582Z,16.53
2018-07-26T03:43:25.607Z,37.03
2018-07-26T03:45:55.441Z,14.83
2018-07-26T03:48:25.415Z,17.97
2018-07-26T03:50:55.734Z,17.02
2018-07-26T03:53:25.908Z,15.40
2018-07-26T03:55:55.325Z,16.57
2018-07-26T03:58:25.115Z,13.33
2018-07-26T04:00:56.801Z,15.13
2018-07-26T04:03:26.404Z,14.07
2018-07-26T04:05:56.796Z,14.83
2018-07-26T04:08:26.622Z,16.32
2018-07-26T04:10:56.288Z,18.10
2018-07-26T04:13:25.720Z,18.77
2018-07-26T04:15:55.074Z,15.93
2018-07-26T04:18:25.097Z,16.33
2018-07-26T04:20:54.907Z,18.03
2018-07-26T04:23:26.561Z,16.50
2018-07-26T04:25:55.921Z,14.87
2018-07-26T04:28:25.439Z,15.50
2018-07-26T04:30:54.818Z,14.38
2018-07-26T04:33:27.826Z,15.32
2018-07-26T04:35:57.500Z,19.45
2018-07-26T04:38:27.522Z,18.50
2018-07-26T04:40:58.374Z,17.45
2018-07-26T04:43:29.860Z,16.23
2018-07-26T04:46:00.890Z,19.63
2018-07-26T04:48:30.616Z,26.40
2018-07-26T04:51:01.567Z,18.63
2018-07-26T04:53:36.185Z,13.87
2018-07-26T04:56:06.142Z,20.13
2018-07-26T04:58:37.337Z,17.30
2018-07-26T05:01:07.719Z,14.10
2018-07-26T05:03:37.540Z,23.93
2018-07-26T05:06:08.533Z,21.50
2018-07-26T05:08:38.081Z,19.40
2018-07-26T05:11:08.570Z,15.63
2018-07-26T05:13:39.076Z,19.27
2018-07-26T05:16:13.358Z,18.03
2018-07-26T05:18:43.394Z,19.93
2018-07-26T05:21:13.648Z,22.10
2018-07-26T05:23:44.789Z,14.27
2018-07-26T05:26:14.629Z,12.83
2018-07-26T05:28:44.239Z,18.10
2018-07-26T05:31:14.556Z,17.40
2018-07-26T05:33:45.725Z,15.25
2018-07-26T05:36:15.739Z,15.03
2018-07-26T05:38:45.877Z,12.40
2018-07-26T05:41:15.473Z,11.47
2018-07-26T05:43:51.694Z,12.00
2018-07-26T05:46:21.570Z,12.03
2018-07-26T05:48:52.358Z,20.20
2018-07-26T05:51:22.746Z,20.07
2018-07-26T05:53:53.481Z,14.18
2018-07-26T05:56:23.690Z,12.67
2018-07-26T05:58:53.889Z,21.27
2018-07-26T06:01:24.005Z,18.63
2018-07-26T06:03:54.319Z,14.68
2018-07-26T06:06:24.155Z,19.23
2018-07-26T06:08:54.408Z,13.00
2018-07-26T06:11:24.785Z,15.07
2018-07-26T06:13:56.384Z,17.07
2018-07-26T06:16:25.932Z,12.47
2018-07-26T06:18:55.630Z,12.17
2018-07-26T06:21:25.209Z,12.17
2018-07-26T06:23:58.805Z,13.20
2018-07-26T06:26:28.273Z,14.17
2018-07-26T06:28:58.438Z,14.70
2018-07-26T06:31:28.798Z,11.77
2018-07-26T06:34:00.011Z,16.25
2018-07-26T06:36:30.159Z,12.33
2018-07-26T06:38:59.554Z,10.98
2018-07-26T06:41:30.003Z,13.20
2018-07-26T06:44:01.987Z,17.17
2018-07-26T06:46:31.760Z,11.45
2018-07-26T06:49:02.099Z,17.23
2018-07-26T06:51:31.746Z,10.87
2018-07-26T06:54:01.788Z,13.43
2018-07-26T06:56:32.242Z,10.30
2018-07-26T06:59:02.840Z,14.50
2018-07-26T07:01:32.665Z,15.67
2018-07-26T07:04:03.260Z,10.50
2018-07-26T07:06:33.848Z,11.77
2018-07-26T07:09:04.829Z,13.15
2018-07-26T07:11:35.084Z,11.33
2018-07-26T07:14:07.252Z,10.38
2018-07-26T07:16:39.936Z,13.58
2018-07-26T07:19:10.312Z,9.23
2018-07-26T07:21:40.359Z,9.05
2018-07-26T07:24:14.280Z,9.73
2018-07-26T07:26:44.444Z,8.98
2018-07-26T07:29:14.432Z,9.60
2018-07-26T07:31:43.973Z,10.47
2018-07-26T07:34:14.432Z,8.18
2018-07-26T07:36:46.271Z,8.80
2018-07-26T07:39:15.747Z,7.67
2018-07-26T07:41:46.134Z,8.30
2018-07-26T07:44:16.246Z,9.50
2018-07-26T07:46:47.558Z,11.73
2018-07-26T07:49:19.654Z,7.50
2018-07-26T07:51:50.086Z,9.74
2018-07-26T07:54:22.255Z,7.95
2018-07-26T07:56:51.695Z,7.83
2018-07-26T07:59:21.238Z,7.65
2018-07-26T08:01:51.301Z,7.45
2018-07-26T08:04:21.416Z,7.40
2018-07-26T08:06:51.238Z,7.83
2018-07-26T08:09:21.534Z,7.55
2018-07-26T08:11:51.411Z,7.13
2018-07-26T08:14:22.737Z,7.00
2018-07-26T08:16:52.237Z,7.30
2018-07-26T08:19:23.102Z,6.93
2018-07-26T08:21:53.625Z,6.60
2018-07-26T08:24:23.643Z,14.50
2018-07-26T08:26:53.628Z,6.65
2018-07-26T08:29:24.607Z,8.25
2018-07-26T08:31:55.196Z,8.55
2018-07-26T08:34:24.745Z,6.72
2018-07-26T08:36:55.208Z,6.25
2018-07-26T08:39:25.388Z,6.35
2018-07-26T08:41:55.703Z,9.78
2018-07-26T08:44:26.376Z,6.62
2018-07-26T08:46:56.589Z,7.58
2018-07-26T08:49:26.544Z,6.22
2018-07-26T08:51:58.082Z,6.07
2018-07-26T08:54:27.536Z,6.08
2018-07-26T08:56:57.194Z,5.93
2018-07-26T08:59:26.546Z,6.12
2018-07-26T09:01:56.460Z,7.67
2018-07-26T09:04:26.118Z,7.90
2018-07-26T09:06:55.833Z,5.10
2018-07-26T09:09:27.332Z,5.90
2018-07-26T09:11:57.535Z,4.90
2018-07-26T09:14:27.106Z,5.33
2018-07-26T09:16:56.453Z,5.37
2018-07-26T09:19:26.056Z,6.35
2018-07-26T09:21:57.111Z,5.27
2018-07-26T09:24:26.989Z,6.28
2018-07-26T09:26:56.863Z,6.50
2018-07-26T09:29:28.750Z,9.58
2018-07-26T09:31:58.450Z,6.37
2018-07-26T09:34:34.053Z,5.50
2018-07-26T09:37:04.657Z,4.97
2018-07-26T09:39:35.898Z,5.17
2018-07-26T09:42:06.037Z,5.87
2018-07-26T09:44:36.231Z,8.65
2018-07-26T09:47:06.466Z,5.03
2018-07-26T09:49:35.997Z,5.17
2018-07-26T09:52:06.393Z,4.45
2018-07-26T09:54:36.206Z,5.40
2018-07-26T09:57:06.411Z,6.05
2018-07-26T09:59:36.418Z,6.12
2018-07-26T10:02:07.569Z,12.73
2018-07-26T10:04:37.884Z,7.20
2018-07-26T10:07:08.377Z,5.80
2018-07-26T10:09:37.945Z,5.90
2018-07-26T10:12:09.448Z,7.10
2018-07-26T10:14:39.985Z,7.50
2018-07-26T10:17:10.228Z,6.70
2018-07-26T10:19:40.255Z,5.10
2018-07-26T10:22:10.937Z,7.75
2018-07-26T10:24:41.321Z,9.53
2018-07-26T10:27:11.995Z,9.93
2018-07-26T10:29:41.571Z,4.60
2018-07-26T10:32:11.757Z,6.83
2018-07-26T10:34:41.280Z,4.78
2018-07-26T10:37:15.315Z,6.17
2018-07-26T10:39:45.359Z,6.83
2018-07-26T10:42:15.678Z,5.03
2018-07-26T10:44:45.846Z,4.70
2018-07-26T10:47:17.158Z,5.80
2018-07-26T10:49:47.878Z,5.42
2018-07-26T10:52:18.513Z,8.98
2018-07-26T10:54:49.183Z,7.68
2018-07-26T10:57:21.027Z,6.28
2018-07-26T10:59:51.896Z,7.17
2018-07-26T11:02:21.552Z,4.22
2018-07-26T11:04:51.248Z,6.53
2018-07-26T11:07:23.429Z,4.58
2018-07-26T11:09:53.550Z,6.55
2018-07-26T11:12:23.466Z,4.83
2018-07-26T11:14:55.976Z,6.27
2018-07-26T11:17:29.145Z,4.80
2018-07-26T11:19:59.875Z,5.00
2018-07-26T11:22:31.086Z,4.42
2018-07-26T11:25:01.645Z,5.80
2018-07-26T11:27:35.629Z,6.37
2018-07-26T11:30:06.092Z,5.03
2018-07-26T11:32:35.905Z,4.17
2018-07-26T11:35:06.677Z,4.83
2018-07-26T11:37:40.273Z,4.78
2018-07-26T11:40:11.388Z,5.10
2018-07-26T11:42:40.951Z,5.53
2018-07-26T11:45:11.557Z,6.62
2018-07-26T11:47:42.563Z,4.65
2018-07-26T11:50:13.400Z,5.05
2018-07-26T11:52:43.957Z,5.30
2018-07-26T11:55:17.056Z,4.83
2018-07-26T11:57:47.721Z,5.02
2018-07-26T12:00:18.047Z,5.20
2018-07-26T12:02:47.670Z,5.15
2018-07-26T12:05:18.804Z,5.37
2018-07-26T12:07:50.908Z,7.80
2018-07-26T12:10:21.318Z,5.50
2018-07-26T12:12:51.659Z,4.80
2018-07-26T12:15:23.173Z,5.83
2018-07-26T12:17:53.399Z,4.58
2018-07-26T12:20:25.024Z,4.80
2018-07-26T12:22:56.035Z,9.03
2018-07-26T12:28:42.737Z,5.05
2018-07-26T12:31:13.967Z,4.33
2018-07-26T12:33:47.817Z,7.33
2018-07-26T12:36:20.809Z,7.67
2018-07-26T12:38:53.822Z,6.60
2018-07-26T12:41:24.470Z,7.37
2018-07-26T12:43:54.756Z,4.03
2018-07-26T12:46:27.322Z,4.47
2018-07-26T12:48:58.251Z,5.40
2018-07-26T12:51:28.547Z,4.33
2018-07-26T12:54:00.423Z,4.90
2018-07-26T12:56:31.470Z,5.30
2018-07-26T12:59:01.253Z,6.93
2018-07-26T13:01:32.517Z,5.95
2018-07-26T13:04:03.753Z,5.17
2018-07-26T13:06:34.485Z,5.62
2018-07-26T13:09:08.512Z,6.03
2018-07-26T13:11:40.335Z,4.17
2018-07-26T13:14:11.371Z,4.17
2018-07-26T13:16:41.686Z,4.20
2018-07-26T13:19:16.726Z,5.55
2018-07-26T13:21:47.340Z,4.43
2018-07-26T13:24:18.585Z,5.60
2018-07-26T13:26:48.663Z,4.13
2018-07-26T13:29:19.148Z,4.05
2018-07-26T13:31:49.685Z,3.62
2018-07-26T13:34:21.488Z,4.84
2018-07-26T13:36:52.627Z,5.78
2018-07-26T13:39:23.722Z,3.90
2018-07-26T13:41:53.908Z,6.50
2018-07-26T13:44:25.342Z,3.60
2018-07-26T13:46:55.887Z,6.28
2018-07-26T13:49:26.231Z,4.33
2018-07-26T13:51:56.660Z,4.13
2018-07-26T13:54:27.918Z,3.77
2018-07-26T13:56:57.781Z,4.40
2018-07-26T13:59:28.170Z,4.00
2018-07-26T14:01:58.673Z,4.93
2018-07-26T14:04:28.579Z,4.58
2018-07-26T14:06:58.115Z,4.08
2018-07-26T14:09:28.343Z,5.90
2018-07-26T14:11:57.939Z,6.20
2018-07-26T14:14:28.522Z,4.75
2018-07-26T14:16:59.320Z,7.68
2018-07-26T14:19:29.221Z,5.12
2018-07-26T14:21:58.560Z,5.05
2018-07-26T14:24:30.053Z,6.08
2018-07-26T14:26:59.702Z,5.50
2018-07-26T14:29:29.412Z,6.92
2018-07-26T14:31:58.794Z,5.75
2018-07-26T14:34:29.173Z,9.73
2018-07-26T14:36:59.108Z,7.33
2018-07-26T14:39:28.339Z,5.33
2018-07-26T14:41:57.850Z,5.53
2018-07-26T14:44:27.309Z,5.00
2018-07-26T14:46:56.574Z,5.43
2018-07-26T14:49:26.232Z,5.13
2018-07-26T14:51:55.976Z,5.08
2018-07-26T14:54:25.694Z,4.28
2018-07-26T14:56:54.968Z,4.08
2018-07-26T14:59:24.195Z,4.00
2018-07-26T15:01:54.016Z,4.60
2018-07-26T15:04:23.836Z,4.83
2018-07-26T15:06:53.413Z,4.72
2018-07-26T15:09:26.631Z,4.17
2018-07-26T15:11:56.122Z,4.33
2018-07-26T15:14:25.665Z,4.37
2018-07-26T15:16:56.923Z,7.30
2018-07-26T15:19:26.281Z,4.97
2018-07-26T15:21:57.804Z,4.40
2018-07-26T15:24:28.363Z,3.80
2018-07-26T15:26:57.822Z,3.95
2018-07-26T15:29:29.032Z,3.65
2018-07-26T15:31:58.513Z,4.03
2018-07-26T15:34:27.840Z,4.13
2018-07-26T15:36:58.598Z,5.75
2018-07-26T15:39:28.393Z,4.85
2018-07-26T15:41:58.428Z,4.02
2018-07-26T15:44:27.810Z,4.30
2018-07-26T15:46:58.371Z,3.43
2018-07-26T15:49:27.658Z,4.25
2018-07-26T15:51:58.671Z,3.80
2018-07-26T15:54:28.265Z,3.87
2018-07-26T15:56:57.775Z,4.95
2018-07-26T15:59:28.225Z,3.52
2018-07-26T16:01:58.788Z,5.22
2018-07-26T16:04:28.176Z,3.70
2018-07-26T16:06:57.606Z,4.10
2018-07-26T16:09:27.288Z,3.37
2018-07-26T16:11:56.823Z,3.33
2018-07-26T16:14:27.148Z,3.33
2018-07-26T16:16:56.542Z,3.80
2018-07-26T16:19:26.028Z,4.40
2018-07-26T16:21:56.506Z,3.37
2018-07-26T16:24:25.968Z,5.95
2018-07-26T16:26:56.036Z,3.63
2018-07-26T16:29:25.418Z,5.33
2018-07-26T16:31:55.088Z,3.60
2018-07-26T16:34:24.512Z,5.73
2018-07-26T16:36:53.991Z,4.05
2018-07-26T16:39:24.831Z,5.84
2018-07-26T16:41:55.122Z,4.25
2018-07-26T16:44:24.500Z,3.80
2018-07-26T16:46:54.032Z,3.30
2018-07-26T16:49:23.482Z,3.70
2018-07-26T16:51:53.097Z,6.80
2018-07-26T16:54:22.668Z,4.08
2018-07-26T16:56:52.308Z,11.47
2018-07-26T16:59:21.880Z,3.47
2018-07-26T17:01:51.107Z,3.47
2018-07-26T17:04:21.137Z,3.67
2018-07-26T17:06:50.628Z,3.40
2018-07-26T17:09:20.114Z,2.60
2018-07-26T17:11:51.796Z,2.83
2018-07-26T17:14:21.642Z,2.87
2018-07-26T17:16:51.103Z,5.75
2018-07-26T17:19:20.356Z,4.03
2018-07-26T17:21:51.386Z,3.22
2018-07-26T17:24:20.779Z,3.17
2018-07-26T17:26:50.804Z,3.23
2018-07-26T17:29:21.061Z,5.17
2018-07-26T17:31:51.056Z,3.02
2018-07-26T17:34:20.370Z,4.53
2018-07-26T17:36:49.711Z,3.40
2018-07-26T17:39:19.041Z,4.17
2018-07-26T17:41:49.862Z,3.60
2018-07-26T17:44:20.004Z,11.48
2018-07-26T17:46:49.239Z,9.53
2018-07-26T17:49:18.421Z,13.30
2018-07-26T17:51:48.072Z,4.20
2018-07-26T17:54:17.399Z,8.65
2018-07-26T17:56:48.012Z,7.02
2018-07-26T17:59:17.483Z,7.72
2018-07-26T18:01:46.772Z,4.37
2018-07-26T18:04:16.309Z,7.67
2018-07-26T18:06:47.161Z,3.47
2018-07-26T18:09:16.747Z,4.65
2018-07-26T18:11:46.191Z,4.65
2018-07-26T18:14:15.501Z,3.35
2018-07-26T18:16:47.674Z,3.40
2018-07-26T18:19:17.093Z,5.22
2018-07-26T18:21:46.661Z,3.87
2018-07-26T18:24:16.084Z,6.92
2018-07-26T18:26:45.711Z,4.40
2018-07-26T18:29:15.157Z,4.87
2018-07-26T18:31:46.070Z,4.60
2018-07-26T18:34:15.799Z,7.50
2018-07-26T18:36:45.190Z,5.53
2018-07-26T18:39:16.500Z,6.83
2018-07-26T18:41:46.145Z,4.22
2018-07-26T18:44:15.789Z,5.12
2018-07-26T18:46:46.021Z,4.47
2018-07-26T18:49:15.633Z,4.30
2018-07-26T18:51:46.262Z,7.47
2018-07-26T18:54:16.361Z,4.70
2018-07-26T18:56:45.944Z,4.10
2018-07-26T18:59:15.399Z,4.30
2018-07-26T19:01:45.861Z,7.37
2018-07-26T19:04:15.555Z,4.65
2018-07-26T19:06:45.279Z,7.10
2018-07-26T19:09:15.299Z,6.70
2018-07-26T19:11:44.903Z,8.13
2018-07-26T19:14:14.807Z,5.57
2018-07-26T19:16:45.461Z,6.50
2018-07-26T19:19:15.569Z,4.20
2018-07-26T19:21:45.754Z,4.53
2018-07-26T19:24:15.704Z,5.83
2018-07-26T19:26:45.515Z,4.00
2018-07-26T19:29:17.060Z,7.10
2018-07-26T19:31:46.678Z,7.43
2018-07-26T19:34:16.737Z,3.83
2018-07-26T19:36:46.374Z,5.97
2018-07-26T19:39:17.630Z,6.22
2018-07-26T19:41:47.905Z,4.92
2018-07-26T19:44:17.883Z,9.68
2018-07-26T19:46:49.561Z,10.08
2018-07-26T19:49:19.400Z,8.73
2018-07-26T19:51:50.880Z,6.67
2018-07-26T19:54:23.062Z,6.00
2018-07-26T19:56:53.791Z,9.23
2018-07-26T19:59:24.034Z,8.07
2018-07-26T20:01:54.459Z,5.85
2018-07-26T20:04:24.061Z,7.20
2018-07-26T20:06:53.560Z,8.18
2018-07-26T20:09:23.294Z,6.12
2018-07-26T20:11:52.954Z,7.33
2018-07-26T20:14:23.231Z,6.50
2018-07-26T20:16:52.863Z,6.40
2018-07-26T20:19:22.747Z,3.70
2018-07-26T20:21:51.951Z,4.20
2018-07-26T20:24:21.494Z,5.33
2018-07-26T20:26:50.763Z,7.80
2018-07-26T20:29:20.127Z,6.62
2018-07-26T20:31:52.879Z,4.00
2018-07-26T20:34:22.412Z,6.42
2018-07-26T20:36:52.088Z,4.07
2018-07-26T20:39:22.013Z,3.67
2018-07-26T20:41:51.723Z,6.00
2018-07-26T20:44:20.860Z,6.47
2018-07-26T20:46:50.785Z,3.72
2018-07-26T20:49:19.902Z,5.27
2018-07-26T20:51:49.115Z,3.50
2018-07-26T20:54:18.325Z,5.87
2018-07-26T20:56:47.480Z,5.30
2018-07-26T20:59:16.724Z,5.27
2018-07-26T21:01:47.558Z,4.93
2018-07-26T21:04:18.249Z,6.13
2018-07-26T21:06:48.009Z,3.97
2018-07-26T21:09:17.867Z,4.23
2018-07-26T21:11:50.203Z,3.70
2018-07-26T21:14:21.289Z,4.10
2018-07-26T21:16:51.563Z,5.25
2018-07-26T21:19:23.156Z,5.70
2018-07-26T21:21:56.069Z,4.17
2018-07-26T21:24:26.757Z,3.60
2018-07-26T21:26:55.849Z,3.95
2018-07-26T21:29:25.189Z,7.20
2018-07-26T21:31:55.591Z,3.63
2018-07-26T21:34:24.737Z,3.87
2018-07-26T21:36:54.219Z,5.50
2018-07-26T21:39:23.663Z,5.53
2018-07-26T21:41:53.739Z,3.67
2018-07-26T21:44:23.340Z,7.85
2018-07-26T21:46:54.118Z,8.18
2018-07-26T21:49:23.750Z,3.80
2018-07-26T21:51:53.236Z,5.23
2018-07-26T21:54:22.428Z,6.37
2018-07-26T21:56:53.155Z,4.17
2018-07-26T21:59:23.456Z,7.03
2018-07-26T22:01:53.823Z,6.20
2018-07-26T22:04:28.201Z,5.80
2018-07-26T22:06:58.000Z,3.70
2018-07-26T22:09:27.948Z,5.27
2018-07-26T22:11:58.180Z,4.90
2018-07-26T22:14:28.061Z,4.87
2018-07-26T22:16:59.838Z,3.60
2018-07-26T22:19:29.573Z,5.23
2018-07-26T22:21:59.805Z,6.30
2018-07-26T22:24:29.347Z,4.10
2018-07-26T22:26:59.159Z,5.97
2018-07-26T22:29:30.107Z,4.13
2018-07-26T22:31:59.787Z,7.27
2018-07-26T22:34:29.271Z,6.27
2018-07-26T22:36:59.257Z,4.43
2018-07-26T22:39:28.577Z,4.40
2018-07-26T22:41:58.366Z,4.23
2018-07-26T22:44:30.360Z,4.20
2018-07-26T22:46:59.861Z,7.30
2018-07-26T22:49:29.548Z,6.12
2018-07-26T22:52:00.892Z,5.40
2018-07-26T22:54:32.879Z,3.62
2018-07-26T22:57:02.246Z,4.65
2018-07-26T22:59:31.788Z,8.70
2018-07-26T23:02:01.189Z,3.53
2018-07-26T23:04:30.413Z,9.57
2018-07-26T23:06:59.701Z,4.10
2018-07-26T23:09:28.913Z,3.57
2018-07-26T23:11:59.292Z,3.73
2018-07-26T23:14:28.368Z,3.40
2018-07-26T23:16:57.452Z,3.50
2018-07-26T23:19:27.827Z,3.70
2018-07-26T23:21:57.543Z,5.70
2018-07-26T23:24:26.745Z,5.10
2018-07-26T23:26:55.951Z,4.43
2018-07-26T23:29:25.515Z,5.00
2018-07-26T23:31:54.605Z,4.73
2018-07-26T23:34:24.963Z,4.00
2018-07-26T23:36:54.749Z,4.33
2018-07-26T23:39:24.655Z,5.90
2018-07-26T23:41:53.892Z,4.08
2018-07-26T23:44:23.026Z,3.83
2018-07-26T23:46:52.272Z,6.90
2018-07-26T23:49:21.488Z,4.55
2018-07-26T23:51:50.784Z,5.00
2018-07-26T23:54:19.916Z,4.20
2018-07-26T23:56:49.266Z,6.67
2018-07-26T23:59:19.936Z,4.20
